sensor_id;sensor_type;location;lat;lon;timestamp;P1;durP1;ratioP1;P2;durP2;ratioP2
41653;SDS011;68687;52.030;7.110;2024-01-07T00:01:23;47.55;;;21.85;;
41653;SDS011;68687;52.030;7.110;2024-01-07T00:03:48;47.13;;;20.85;;
41653;SDS011;68687;52.030;7.110;2024-01-07T00:06:14;45.50;;;21.02;;
41653;SDS011;68687;52.030;7.110;2024-01-07T00:08:39;44.10;;;20.95;;
41653;SDS011;68687;52.030;7.110;2024-01-07T00:11:04;44.95;;;21.13;;
41653;SDS011;68687;52.030;7.110;2024-01-07T00:13:30;44.55;;;20.30;;
41653;SDS011;68687;52.030;7.110;2024-01-07T00:15:55;43.92;;;21.73;;
41653;SDS011;68687;52.030;7.110;2024-01-07T00:18:20;45.83;;;19.70;;
41653;SDS011;68687;52.030;7.110;2024-01-07T00:20:53;45.45;;;21.33;;
41653;SDS011;68687;52.030;7.110;2024-01-07T00:23:18;42.83;;;19.92;;
41653;SDS011;68687;52.030;7.110;2024-01-07T00:25:45;43.55;;;20.17;;
41653;SDS011;68687;52.030;7.110;2024-01-07T00:31:33;44.38;;;20.92;;
41653;SDS011;68687;52.030;7.110;2024-01-07T00:34:01;49.63;;;22.85;;
41653;SDS011;68687;52.030;7.110;2024-01-07T00:36:26;41.83;;;20.52;;
41653;SDS011;68687;52.030;7.110;2024-01-07T00:38:54;40.80;;;21.23;;
41653;SDS011;68687;52.030;7.110;2024-01-07T00:41:20;46.17;;;22.10;;
41653;SDS011;68687;52.030;7.110;2024-01-07T00:43:45;47.22;;;22.60;;
41653;SDS011;68687;52.030;7.110;2024-01-07T00:46:10;44.40;;;19.50;;
41653;SDS011;68687;52.030;7.110;2024-01-07T00:48:35;41.47;;;21.60;;
41653;SDS011;68687;52.030;7.110;2024-01-07T00:51:01;46.83;;;20.55;;
41653;SDS011;68687;52.030;7.110;2024-01-07T00:53:26;45.95;;;21.35;;
41653;SDS011;68687;52.030;7.110;2024-01-07T00:55:51;47.42;;;22.02;;
41653;SDS011;68687;52.030;7.110;2024-01-07T01:01:38;47.40;;;22.75;;
41653;SDS011;68687;52.030;7.110;2024-01-07T01:04:06;49.70;;;22.60;;
41653;SDS011;68687;52.030;7.110;2024-01-07T01:06:31;47.53;;;21.98;;
41653;SDS011;68687;52.030;7.110;2024-01-07T01:08:57;45.72;;;22.15;;
41653;SDS011;68687;52.030;7.110;2024-01-07T01:11:22;50.03;;;21.85;;
41653;SDS011;68687;52.030;7.110;2024-01-07T01:13:53;40.95;;;19.58;;
41653;SDS011;68687;52.030;7.110;2024-01-07T01:16:19;46.30;;;22.02;;
41653;SDS011;68687;52.030;7.110;2024-01-07T01:18:44;42.60;;;20.83;;
41653;SDS011;68687;52.030;7.110;2024-01-07T01:21:12;39.13;;;20.02;;
41653;SDS011;68687;52.030;7.110;2024-01-07T01:23:37;45.03;;;19.60;;
41653;SDS011;68687;52.030;7.110;2024-01-07T01:26:03;44.75;;;19.10;;
41653;SDS011;68687;52.030;7.110;2024-01-07T01:28:28;37.97;;;18.83;;
41653;SDS011;68687;52.030;7.110;2024-01-07T01:30:53;40.03;;;20.55;;
41653;SDS011;68687;52.030;7.110;2024-01-07T01:33:19;30.70;;;16.73;;
41653;SDS011;68687;52.030;7.110;2024-01-07T01:35:44;38.05;;;18.45;;
41653;SDS011;68687;52.030;7.110;2024-01-07T01:38:12;41.95;;;19.00;;
41653;SDS011;68687;52.030;7.110;2024-01-07T01:40:40;38.38;;;18.65;;
41653;SDS011;68687;52.030;7.110;2024-01-07T01:43:06;32.83;;;17.55;;
41653;SDS011;68687;52.030;7.110;2024-01-07T01:45:31;39.20;;;19.13;;
41653;SDS011;68687;52.030;7.110;2024-01-07T01:47:59;33.58;;;18.08;;
41653;SDS011;68687;52.030;7.110;2024-01-07T01:50:25;38.08;;;18.95;;
41653;SDS011;68687;52.030;7.110;2024-01-07T01:52:51;40.50;;;19.30;;
41653;SDS011;68687;52.030;7.110;2024-01-07T01:55:17;38.75;;;18.02;;
41653;SDS011;68687;52.030;7.110;2024-01-07T01:57:43;34.85;;;18.25;;
41653;SDS011;68687;52.030;7.110;2024-01-07T02:00:11;38.92;;;17.73;;
41653;SDS011;68687;52.030;7.110;2024-01-07T02:02:40;39.75;;;19.27;;
41653;SDS011;68687;52.030;7.110;2024-01-07T02:05:05;34.20;;;17.83;;
41653;SDS011;68687;52.030;7.110;2024-01-07T02:07:30;35.40;;;18.25;;
41653;SDS011;68687;52.030;7.110;2024-01-07T02:09:56;30.88;;;17.77;;
41653;SDS011;68687;52.030;7.110;2024-01-07T02:12:21;35.45;;;17.77;;
41653;SDS011;68687;52.030;7.110;2024-01-07T02:14:47;38.28;;;18.50;;
41653;SDS011;68687;52.030;7.110;2024-01-07T02:17:15;36.60;;;19.33;;
41653;SDS011;68687;52.030;7.110;2024-01-07T02:19:41;38.45;;;20.08;;
41653;SDS011;68687;52.030;7.110;2024-01-07T02:22:07;40.70;;;19.23;;
41653;SDS011;68687;52.030;7.110;2024-01-07T02:24:32;34.63;;;18.67;;
41653;SDS011;68687;52.030;7.110;2024-01-07T02:27:00;43.03;;;19.10;;
41653;SDS011;68687;52.030;7.110;2024-01-07T02:29:28;32.95;;;17.75;;
41653;SDS011;68687;52.030;7.110;2024-01-07T02:32:00;36.58;;;17.67;;
41653;SDS011;68687;52.030;7.110;2024-01-07T02:34:25;37.03;;;17.95;;
41653;SDS011;68687;52.030;7.110;2024-01-07T02:36:51;37.10;;;17.98;;
41653;SDS011;68687;52.030;7.110;2024-01-07T02:39:19;34.47;;;18.27;;
41653;SDS011;68687;52.030;7.110;2024-01-07T02:41:44;33.13;;;17.65;;
41653;SDS011;68687;52.030;7.110;2024-01-07T02:44:13;34.10;;;17.98;;
41653;SDS011;68687;52.030;7.110;2024-01-07T02:46:41;34.67;;;17.58;;
41653;SDS011;68687;52.030;7.110;2024-01-07T02:49:06;36.08;;;18.13;;
41653;SDS011;68687;52.030;7.110;2024-01-07T02:51:32;34.53;;;17.25;;
41653;SDS011;68687;52.030;7.110;2024-01-07T02:53:57;33.15;;;16.25;;
41653;SDS011;68687;52.030;7.110;2024-01-07T02:56:22;34.47;;;17.08;;
41653;SDS011;68687;52.030;7.110;2024-01-07T02:58:48;32.20;;;17.20;;
41653;SDS011;68687;52.030;7.110;2024-01-07T03:01:16;27.20;;;15.63;;
41653;SDS011;68687;52.030;7.110;2024-01-07T03:03:41;32.55;;;17.15;;
41653;SDS011;68687;52.030;7.110;2024-01-07T03:06:13;29.77;;;16.13;;
41653;SDS011;68687;52.030;7.110;2024-01-07T03:08:38;35.00;;;18.20;;
41653;SDS011;68687;52.030;7.110;2024-01-07T03:11:10;35.17;;;17.80;;
41653;SDS011;68687;52.030;7.110;2024-01-07T03:13:35;32.40;;;17.48;;
41653;SDS011;68687;52.030;7.110;2024-01-07T03:16:00;36.80;;;18.70;;
41653;SDS011;68687;52.030;7.110;2024-01-07T03:18:27;34.08;;;17.77;;
41653;SDS011;68687;52.030;7.110;2024-01-07T03:20:53;34.47;;;18.08;;
41653;SDS011;68687;52.030;7.110;2024-01-07T03:23:21;31.77;;;17.77;;
41653;SDS011;68687;52.030;7.110;2024-01-07T03:25:47;35.38;;;17.75;;
41653;SDS011;68687;52.030;7.110;2024-01-07T03:28:18;37.03;;;17.60;;
41653;SDS011;68687;52.030;7.110;2024-01-07T03:30:44;37.25;;;18.67;;
41653;SDS011;68687;52.030;7.110;2024-01-07T03:33:10;36.92;;;17.63;;
41653;SDS011;68687;52.030;7.110;2024-01-07T03:35:41;40.20;;;18.80;;
41653;SDS011;68687;52.030;7.110;2024-01-07T03:38:06;36.65;;;18.55;;
41653;SDS011;68687;52.030;7.110;2024-01-07T03:40:31;36.83;;;18.95;;
41653;SDS011;68687;52.030;7.110;2024-01-07T03:42:57;35.33;;;17.27;;
41653;SDS011;68687;52.030;7.110;2024-01-07T03:45:28;35.67;;;17.10;;
41653;SDS011;68687;52.030;7.110;2024-01-07T03:47:56;37.75;;;18.90;;
41653;SDS011;68687;52.030;7.110;2024-01-07T03:50:21;34.08;;;17.20;;
41653;SDS011;68687;52.030;7.110;2024-01-07T03:52:49;35.05;;;17.60;;
41653;SDS011;68687;52.030;7.110;2024-01-07T03:55:14;36.42;;;16.55;;
41653;SDS011;68687;52.030;7.110;2024-01-07T03:57:40;35.15;;;18.27;;
41653;SDS011;68687;52.030;7.110;2024-01-07T04:00:08;33.33;;;17.02;;
41653;SDS011;68687;52.030;7.110;2024-01-07T04:02:34;32.78;;;17.60;;
41653;SDS011;68687;52.030;7.110;2024-01-07T04:05:00;30.48;;;16.30;;
41653;SDS011;68687;52.030;7.110;2024-01-07T04:07:25;33.50;;;16.25;;
41653;SDS011;68687;52.030;7.110;2024-01-07T04:09:50;33.15;;;17.15;;
41653;SDS011;68687;52.030;7.110;2024-01-07T04:12:15;31.55;;;17.13;;
41653;SDS011;68687;52.030;7.110;2024-01-07T04:14:42;34.35;;;17.15;;
41653;SDS011;68687;52.030;7.110;2024-01-07T04:17:08;37.53;;;18.13;;
41653;SDS011;68687;52.030;7.110;2024-01-07T04:19:33;33.05;;;16.67;;
41653;SDS011;68687;52.030;7.110;2024-01-07T04:22:01;33.25;;;18.75;;
41653;SDS011;68687;52.030;7.110;2024-01-07T04:24:27;34.08;;;16.88;;
41653;SDS011;68687;52.030;7.110;2024-01-07T04:26:52;35.63;;;18.60;;
41653;SDS011;68687;52.030;7.110;2024-01-07T04:29:17;31.23;;;16.67;;
41653;SDS011;68687;52.030;7.110;2024-01-07T04:31:42;35.08;;;17.95;;
41653;SDS011;68687;52.030;7.110;2024-01-07T04:34:08;36.67;;;19.13;;
41653;SDS011;68687;52.030;7.110;2024-01-07T04:36:33;34.85;;;18.00;;
41653;SDS011;68687;52.030;7.110;2024-01-07T04:39:01;36.88;;;18.80;;
41653;SDS011;68687;52.030;7.110;2024-01-07T04:41:26;31.70;;;17.63;;
41653;SDS011;68687;52.030;7.110;2024-01-07T04:43:52;40.92;;;19.70;;
41653;SDS011;68687;52.030;7.110;2024-01-07T04:46:20;37.08;;;18.20;;
41653;SDS011;68687;52.030;7.110;2024-01-07T04:48:48;42.95;;;19.38;;
41653;SDS011;68687;52.030;7.110;2024-01-07T04:51:13;34.67;;;17.50;;
41653;SDS011;68687;52.030;7.110;2024-01-07T04:53:39;36.53;;;19.05;;
41653;SDS011;68687;52.030;7.110;2024-01-07T04:56:07;39.35;;;19.17;;
41653;SDS011;68687;52.030;7.110;2024-01-07T04:58:33;36.35;;;18.52;;
41653;SDS011;68687;52.030;7.110;2024-01-07T05:00:58;34.92;;;18.70;;
41653;SDS011;68687;52.030;7.110;2024-01-07T05:03:23;35.05;;;19.25;;
41653;SDS011;68687;52.030;7.110;2024-01-07T05:05:48;35.15;;;18.25;;
41653;SDS011;68687;52.030;7.110;2024-01-07T05:08:20;35.97;;;16.95;;
41653;SDS011;68687;52.030;7.110;2024-01-07T05:10:45;34.17;;;18.08;;
41653;SDS011;68687;52.030;7.110;2024-01-07T05:13:11;32.35;;;16.63;;
41653;SDS011;68687;52.030;7.110;2024-01-07T05:15:36;36.53;;;17.95;;
41653;SDS011;68687;52.030;7.110;2024-01-07T05:24:07;34.53;;;17.43;;
41653;SDS011;68687;52.030;7.110;2024-01-07T05:26:39;35.47;;;18.02;;
41653;SDS011;68687;52.030;7.110;2024-01-07T05:29:08;33.08;;;17.23;;
41653;SDS011;68687;52.030;7.110;2024-01-07T05:31:34;31.33;;;17.15;;
41653;SDS011;68687;52.030;7.110;2024-01-07T05:33:59;31.90;;;17.67;;
41653;SDS011;68687;52.030;7.110;2024-01-07T05:36:24;32.70;;;16.25;;
41653;SDS011;68687;52.030;7.110;2024-01-07T05:38:50;29.70;;;16.55;;
41653;SDS011;68687;52.030;7.110;2024-01-07T05:41:15;29.20;;;15.85;;
41653;SDS011;68687;52.030;7.110;2024-01-07T05:43:40;28.75;;;16.48;;
41653;SDS011;68687;52.030;7.110;2024-01-07T05:46:05;30.45;;;15.88;;
41653;SDS011;68687;52.030;7.110;2024-01-07T05:48:40;31.75;;;17.15;;
41653;SDS011;68687;52.030;7.110;2024-01-07T05:51:07;33.63;;;17.42;;
41653;SDS011;68687;52.030;7.110;2024-01-07T05:53:34;27.05;;;16.23;;
41653;SDS011;68687;52.030;7.110;2024-01-07T05:55:59;27.33;;;15.90;;
41653;SDS011;68687;52.030;7.110;2024-01-07T05:58:25;33.35;;;16.55;;
41653;SDS011;68687;52.030;7.110;2024-01-07T06:00:50;32.67;;;18.45;;
41653;SDS011;68687;52.030;7.110;2024-01-07T06:03:18;33.85;;;16.98;;
41653;SDS011;68687;52.030;7.110;2024-01-07T06:05:43;28.73;;;15.23;;
41653;SDS011;68687;52.030;7.110;2024-01-07T06:08:09;32.53;;;16.67;;
41653;SDS011;68687;52.030;7.110;2024-01-07T06:10:35;28.52;;;17.48;;
41653;SDS011;68687;52.030;7.110;2024-01-07T06:39:38;28.85;;;15.60;;
41653;SDS011;68687;52.030;7.110;2024-01-07T06:42:03;25.00;;;15.23;;
41653;SDS011;68687;52.030;7.110;2024-01-07T06:44:29;25.27;;;14.90;;
41653;SDS011;68687;52.030;7.110;2024-01-07T06:46:55;26.15;;;15.10;;
41653;SDS011;68687;52.030;7.110;2024-01-07T06:49:21;28.17;;;14.80;;
41653;SDS011;68687;52.030;7.110;2024-01-07T06:51:46;24.65;;;14.32;;
41653;SDS011;68687;52.030;7.110;2024-01-07T06:54:11;24.65;;;14.20;;
41653;SDS011;68687;52.030;7.110;2024-01-07T06:56:36;23.23;;;14.32;;
41653;SDS011;68687;52.030;7.110;2024-01-07T07:04:59;21.70;;;12.02;;
41653;SDS011;68687;52.030;7.110;2024-01-07T07:07:24;19.80;;;12.55;;
41653;SDS011;68687;52.030;7.110;2024-01-07T07:09:49;22.80;;;13.75;;
41653;SDS011;68687;52.030;7.110;2024-01-07T07:12:15;21.90;;;13.75;;
41653;SDS011;68687;52.030;7.110;2024-01-07T07:14:40;22.17;;;12.90;;
41653;SDS011;68687;52.030;7.110;2024-01-07T07:17:09;23.58;;;13.20;;
41653;SDS011;68687;52.030;7.110;2024-01-07T07:19:34;24.45;;;13.18;;
41653;SDS011;68687;52.030;7.110;2024-01-07T07:21:59;18.70;;;12.13;;
41653;SDS011;68687;52.030;7.110;2024-01-07T07:24:24;20.55;;;12.70;;
41653;SDS011;68687;52.030;7.110;2024-01-07T07:26:50;21.83;;;13.30;;
41653;SDS011;68687;52.030;7.110;2024-01-07T07:29:15;20.27;;;12.15;;
41653;SDS011;68687;52.030;7.110;2024-01-07T07:31:43;19.83;;;12.20;;
41653;SDS011;68687;52.030;7.110;2024-01-07T07:34:09;20.98;;;13.23;;
41653;SDS011;68687;52.030;7.110;2024-01-07T07:36:35;19.92;;;12.10;;
41653;SDS011;68687;52.030;7.110;2024-01-07T07:39:00;22.23;;;12.77;;
41653;SDS011;68687;52.030;7.110;2024-01-07T07:41:25;20.05;;;13.07;;
41653;SDS011;68687;52.030;7.110;2024-01-07T07:43:53;21.67;;;12.73;;
41653;SDS011;68687;52.030;7.110;2024-01-07T07:46:25;23.08;;;13.40;;
41653;SDS011;68687;52.030;7.110;2024-01-07T07:48:53;20.23;;;11.43;;
41653;SDS011;68687;52.030;7.110;2024-01-07T07:51:19;16.48;;;10.25;;
41653;SDS011;68687;52.030;7.110;2024-01-07T07:53:45;21.63;;;11.27;;
41653;SDS011;68687;52.030;7.110;2024-01-07T07:56:14;18.95;;;9.70;;
41653;SDS011;68687;52.030;7.110;2024-01-07T07:58:39;19.85;;;10.13;;
41653;SDS011;68687;52.030;7.110;2024-01-07T08:01:04;19.50;;;9.82;;
41653;SDS011;68687;52.030;7.110;2024-01-07T08:03:30;14.95;;;8.63;;
41653;SDS011;68687;52.030;7.110;2024-01-07T08:06:02;13.88;;;8.82;;
41653;SDS011;68687;52.030;7.110;2024-01-07T08:08:28;14.93;;;9.32;;
41653;SDS011;68687;52.030;7.110;2024-01-07T08:10:53;16.45;;;8.90;;
41653;SDS011;68687;52.030;7.110;2024-01-07T08:13:22;18.25;;;9.25;;
41653;SDS011;68687;52.030;7.110;2024-01-07T08:15:50;17.55;;;9.60;;
41653;SDS011;68687;52.030;7.110;2024-01-07T08:18:15;14.35;;;8.65;;
41653;SDS011;68687;52.030;7.110;2024-01-07T08:20:41;12.63;;;8.50;;
41653;SDS011;68687;52.030;7.110;2024-01-07T08:23:09;16.98;;;8.45;;
41653;SDS011;68687;52.030;7.110;2024-01-07T08:25:35;16.83;;;8.95;;
41653;SDS011;68687;52.030;7.110;2024-01-07T08:28:00;18.52;;;10.13;;
41653;SDS011;68687;52.030;7.110;2024-01-07T08:30:25;14.40;;;8.82;;
41653;SDS011;68687;52.030;7.110;2024-01-07T08:32:51;18.83;;;10.80;;
41653;SDS011;68687;52.030;7.110;2024-01-07T08:35:19;19.55;;;10.55;;
41653;SDS011;68687;52.030;7.110;2024-01-07T08:37:44;18.13;;;10.15;;
41653;SDS011;68687;52.030;7.110;2024-01-07T08:40:12;19.17;;;9.20;;
41653;SDS011;68687;52.030;7.110;2024-01-07T08:42:38;16.63;;;9.98;;
41653;SDS011;68687;52.030;7.110;2024-01-07T08:45:04;26.70;;;11.60;;
41653;SDS011;68687;52.030;7.110;2024-01-07T08:47:30;25.50;;;13.00;;
41653;SDS011;68687;52.030;7.110;2024-01-07T08:49:56;17.95;;;10.75;;
41653;SDS011;68687;52.030;7.110;2024-01-07T08:52:21;18.25;;;9.68;;
41653;SDS011;68687;52.030;7.110;2024-01-07T08:54:47;18.00;;;10.02;;
41653;SDS011;68687;52.030;7.110;2024-01-07T08:57:12;21.58;;;9.77;;
41653;SDS011;68687;52.030;7.110;2024-01-07T09:10:07;15.48;;;8.82;;
41653;SDS011;68687;52.030;7.110;2024-01-07T09:12:35;17.52;;;8.48;;
41653;SDS011;68687;52.030;7.110;2024-01-07T09:15:08;12.88;;;7.45;;
41653;SDS011;68687;52.030;7.110;2024-01-07T09:17:35;16.08;;;7.72;;
41653;SDS011;68687;52.030;7.110;2024-01-07T09:20:01;15.02;;;9.63;;
41653;SDS011;68687;52.030;7.110;2024-01-07T09:22:29;14.82;;;8.68;;
41653;SDS011;68687;52.030;7.110;2024-01-07T09:24:54;15.98;;;8.00;;
41653;SDS011;68687;52.030;7.110;2024-01-07T09:27:21;13.07;;;7.20;;
41653;SDS011;68687;52.030;7.110;2024-01-07T09:29:46;14.75;;;7.60;;
41653;SDS011;68687;52.030;7.110;2024-01-07T09:32:11;10.40;;;6.60;;
41653;SDS011;68687;52.030;7.110;2024-01-07T09:34:36;9.73;;;6.10;;
41653;SDS011;68687;52.030;7.110;2024-01-07T09:37:02;11.90;;;6.22;;
41653;SDS011;68687;52.030;7.110;2024-01-07T09:39:27;9.27;;;6.10;;
41653;SDS011;68687;52.030;7.110;2024-01-07T09:41:53;9.45;;;6.05;;
41653;SDS011;68687;52.030;7.110;2024-01-07T09:44:22;10.05;;;6.32;;
41653;SDS011;68687;52.030;7.110;2024-01-07T09:46:47;10.75;;;5.88;;
41653;SDS011;68687;52.030;7.110;2024-01-07T09:49:16;11.10;;;6.40;;
41653;SDS011;68687;52.030;7.110;2024-01-07T09:51:42;10.60;;;5.90;;
41653;SDS011;68687;52.030;7.110;2024-01-07T09:54:11;9.13;;;5.78;;
41653;SDS011;68687;52.030;7.110;2024-01-07T09:56:42;11.15;;;6.03;;
41653;SDS011;68687;52.030;7.110;2024-01-07T09:59:15;11.15;;;6.10;;
41653;SDS011;68687;52.030;7.110;2024-01-07T10:01:42;8.70;;;5.82;;
41653;SDS011;68687;52.030;7.110;2024-01-07T10:04:09;11.00;;;7.50;;
41653;SDS011;68687;52.030;7.110;2024-01-07T10:06:41;7.97;;;5.72;;
41653;SDS011;68687;52.030;7.110;2024-01-07T10:09:06;10.30;;;5.75;;
41653;SDS011;68687;52.030;7.110;2024-01-07T10:11:32;14.13;;;5.28;;
41653;SDS011;68687;52.030;7.110;2024-01-07T10:13:57;9.35;;;5.97;;
41653;SDS011;68687;52.030;7.110;2024-01-07T10:16:23;8.20;;;5.68;;
41653;SDS011;68687;52.030;7.110;2024-01-07T10:18:48;12.15;;;5.75;;
41653;SDS011;68687;52.030;7.110;2024-01-07T10:21:13;9.93;;;6.82;;
41653;SDS011;68687;52.030;7.110;2024-01-07T10:23:39;14.43;;;7.30;;
41653;SDS011;68687;52.030;7.110;2024-01-07T10:26:04;11.27;;;6.40;;
41653;SDS011;68687;52.030;7.110;2024-01-07T10:28:31;14.80;;;8.88;;
41653;SDS011;68687;52.030;7.110;2024-01-07T10:30:56;11.00;;;7.25;;
41653;SDS011;68687;52.030;7.110;2024-01-07T10:33:22;14.73;;;9.73;;
41653;SDS011;68687;52.030;7.110;2024-01-07T10:35:57;11.18;;;8.07;;
41653;SDS011;68687;52.030;7.110;2024-01-07T10:38:29;11.25;;;7.43;;
41653;SDS011;68687;52.030;7.110;2024-01-07T10:40:54;12.07;;;7.50;;
41653;SDS011;68687;52.030;7.110;2024-01-07T10:43:23;11.95;;;6.95;;
41653;SDS011;68687;52.030;7.110;2024-01-07T10:45:54;19.58;;;12.25;;
41653;SDS011;68687;52.030;7.110;2024-01-07T10:48:20;12.10;;;6.53;;
41653;SDS011;68687;52.030;7.110;2024-01-07T10:50:48;8.73;;;6.70;;
41653;SDS011;68687;52.030;7.110;2024-01-07T10:53:21;13.15;;;7.38;;
41653;SDS011;68687;52.030;7.110;2024-01-07T10:55:50;6.05;;;5.47;;
41653;SDS011;68687;52.030;7.110;2024-01-07T10:58:19;7.22;;;5.78;;
41653;SDS011;68687;52.030;7.110;2024-01-07T11:00:45;12.45;;;7.07;;
41653;SDS011;68687;52.030;7.110;2024-01-07T11:06:18;9.02;;;6.03;;
41653;SDS011;68687;52.030;7.110;2024-01-07T11:08:45;9.75;;;7.05;;
41653;SDS011;68687;52.030;7.110;2024-01-07T11:11:27;11.38;;;6.72;;
41653;SDS011;68687;52.030;7.110;2024-01-07T11:14:00;10.40;;;7.00;;
41653;SDS011;68687;52.030;7.110;2024-01-07T11:19:04;10.05;;;6.47;;
41653;SDS011;68687;52.030;7.110;2024-01-07T11:21:29;10.02;;;7.18;;
41653;SDS011;68687;52.030;7.110;2024-01-07T11:23:54;13.75;;;5.65;;
41653;SDS011;68687;52.030;7.110;2024-01-07T11:26:20;10.13;;;6.13;;
41653;SDS011;68687;52.030;7.110;2024-01-07T11:28:51;12.05;;;6.90;;
41653;SDS011;68687;52.030;7.110;2024-01-07T11:31:19;13.27;;;6.95;;
41653;SDS011;68687;52.030;7.110;2024-01-07T11:33:45;11.52;;;6.53;;
41653;SDS011;68687;52.030;7.110;2024-01-07T11:36:12;8.88;;;5.20;;
41653;SDS011;68687;52.030;7.110;2024-01-07T11:38:42;13.25;;;7.47;;
41653;SDS011;68687;52.030;7.110;2024-01-07T11:41:09;8.15;;;5.63;;
41653;SDS011;68687;52.030;7.110;2024-01-07T11:43:35;11.35;;;5.57;;
41653;SDS011;68687;52.030;7.110;2024-01-07T11:46:01;11.82;;;6.13;;
41653;SDS011;68687;52.030;7.110;2024-01-07T11:48:26;8.52;;;5.82;;
41653;SDS011;68687;52.030;7.110;2024-01-07T11:50:52;7.75;;;4.97;;
41653;SDS011;68687;52.030;7.110;2024-01-07T11:53:17;8.40;;;5.90;;
41653;SDS011;68687;52.030;7.110;2024-01-07T11:55:43;6.10;;;4.65;;
41653;SDS011;68687;52.030;7.110;2024-01-07T11:58:09;19.02;;;9.05;;
41653;SDS011;68687;52.030;7.110;2024-01-07T12:00:35;11.52;;;6.60;;
41653;SDS011;68687;52.030;7.110;2024-01-07T12:03:01;10.80;;;6.35;;
41653;SDS011;68687;52.030;7.110;2024-01-07T12:05:27;8.43;;;5.72;;
41653;SDS011;68687;52.030;7.110;2024-01-07T12:07:53;7.25;;;5.07;;
41653;SDS011;68687;52.030;7.110;2024-01-07T12:10:18;6.07;;;5.03;;
41653;SDS011;68687;52.030;7.110;2024-01-07T12:12:44;9.60;;;5.90;;
41653;SDS011;68687;52.030;7.110;2024-01-07T12:15:09;13.52;;;8.63;;
41653;SDS011;68687;52.030;7.110;2024-01-07T12:17:38;10.80;;;5.88;;
41653;SDS011;68687;52.030;7.110;2024-01-07T12:20:04;10.40;;;6.05;;
41653;SDS011;68687;52.030;7.110;2024-01-07T12:22:30;8.15;;;5.03;;
41653;SDS011;68687;52.030;7.110;2024-01-07T12:25:07;10.77;;;6.43;;
41653;SDS011;68687;52.030;7.110;2024-01-07T12:27:33;10.30;;;5.93;;
41653;SDS011;68687;52.030;7.110;2024-01-07T12:30:00;6.32;;;5.05;;
41653;SDS011;68687;52.030;7.110;2024-01-07T12:32:26;13.38;;;6.68;;
41653;SDS011;68687;52.030;7.110;2024-01-07T12:34:52;11.20;;;4.95;;
41653;SDS011;68687;52.030;7.110;2024-01-07T12:37:17;21.67;;;9.93;;
41653;SDS011;68687;52.030;7.110;2024-01-07T12:39:46;9.50;;;5.38;;
41653;SDS011;68687;52.030;7.110;2024-01-07T12:42:11;6.93;;;5.07;;
41653;SDS011;68687;52.030;7.110;2024-01-07T12:44:38;12.68;;;5.43;;
41653;SDS011;68687;52.030;7.110;2024-01-07T12:47:04;7.30;;;4.72;;
41653;SDS011;68687;52.030;7.110;2024-01-07T12:49:29;8.80;;;6.13;;
41653;SDS011;68687;52.030;7.110;2024-01-07T12:51:54;7.20;;;4.95;;
41653;SDS011;68687;52.030;7.110;2024-01-07T12:54:20;6.97;;;5.20;;
41653;SDS011;68687;52.030;7.110;2024-01-07T12:56:46;9.57;;;4.55;;
41653;SDS011;68687;52.030;7.110;2024-01-07T12:59:12;6.65;;;4.10;;
41653;SDS011;68687;52.030;7.110;2024-01-07T13:01:37;8.95;;;5.85;;
41653;SDS011;68687;52.030;7.110;2024-01-07T13:04:02;8.35;;;6.07;;
41653;SDS011;68687;52.030;7.110;2024-01-07T13:06:28;11.55;;;7.50;;
41653;SDS011;68687;52.030;7.110;2024-01-07T13:08:53;10.32;;;5.75;;
41653;SDS011;68687;52.030;7.110;2024-01-07T13:11:19;11.68;;;7.97;;
41653;SDS011;68687;52.030;7.110;2024-01-07T13:13:45;7.25;;;5.65;;
41653;SDS011;68687;52.030;7.110;2024-01-07T13:16:10;8.25;;;4.97;;
41653;SDS011;68687;52.030;7.110;2024-01-07T13:18:36;8.13;;;5.00;;
41653;SDS011;68687;52.030;7.110;2024-01-07T13:21:02;10.57;;;5.50;;
41653;SDS011;68687;52.030;7.110;2024-01-07T13:23:31;8.35;;;4.80;;
41653;SDS011;68687;52.030;7.110;2024-01-07T13:25:57;7.93;;;4.90;;
41653;SDS011;68687;52.030;7.110;2024-01-07T13:28:26;7.00;;;4.57;;
41653;SDS011;68687;52.030;7.110;2024-01-07T13:30:51;6.85;;;4.20;;
41653;SDS011;68687;52.030;7.110;2024-01-07T13:33:17;8.60;;;5.25;;
41653;SDS011;68687;52.030;7.110;2024-01-07T13:35:43;14.35;;;5.80;;
41653;SDS011;68687;52.030;7.110;2024-01-07T13:38:08;8.82;;;5.05;;
41653;SDS011;68687;52.030;7.110;2024-01-07T13:40:34;7.13;;;4.55;;
41653;SDS011;68687;52.030;7.110;2024-01-07T13:42:59;6.07;;;3.70;;
41653;SDS011;68687;52.030;7.110;2024-01-07T13:45:27;6.88;;;4.00;;
41653;SDS011;68687;52.030;7.110;2024-01-07T13:47:53;4.90;;;4.15;;
41653;SDS011;68687;52.030;7.110;2024-01-07T13:50:18;8.35;;;6.28;;
41653;SDS011;68687;52.030;7.110;2024-01-07T13:52:47;9.57;;;6.15;;
41653;SDS011;68687;52.030;7.110;2024-01-07T13:55:12;8.82;;;5.55;;
41653;SDS011;68687;52.030;7.110;2024-01-07T13:57:41;7.70;;;4.20;;
41653;SDS011;68687;52.030;7.110;2024-01-07T14:00:06;12.55;;;6.35;;
41653;SDS011;68687;52.030;7.110;2024-01-07T14:02:39;8.93;;;4.45;;
41653;SDS011;68687;52.030;7.110;2024-01-07T14:05:08;5.45;;;4.38;;
41653;SDS011;68687;52.030;7.110;2024-01-07T14:07:35;9.40;;;4.57;;
41653;SDS011;68687;52.030;7.110;2024-01-07T14:10:00;5.07;;;3.97;;
41653;SDS011;68687;52.030;7.110;2024-01-07T14:12:28;9.07;;;3.97;;
41653;SDS011;68687;52.030;7.110;2024-01-07T14:14:53;6.47;;;3.75;;
41653;SDS011;68687;52.030;7.110;2024-01-07T14:17:21;9.20;;;5.43;;
41653;SDS011;68687;52.030;7.110;2024-01-07T14:19:47;7.45;;;4.03;;
41653;SDS011;68687;52.030;7.110;2024-01-07T14:22:16;8.77;;;5.20;;
41653;SDS011;68687;52.030;7.110;2024-01-07T14:24:41;8.65;;;5.22;;
41653;SDS011;68687;52.030;7.110;2024-01-07T14:27:06;10.75;;;4.35;;
41653;SDS011;68687;52.030;7.110;2024-01-07T14:29:31;8.98;;;4.30;;
41653;SDS011;68687;52.030;7.110;2024-01-07T14:31:59;6.82;;;4.40;;
41653;SDS011;68687;52.030;7.110;2024-01-07T14:34:27;6.53;;;3.97;;
41653;SDS011;68687;52.030;7.110;2024-01-07T14:36:55;6.68;;;5.10;;
41653;SDS011;68687;52.030;7.110;2024-01-07T14:39:20;6.78;;;4.40;;
41653;SDS011;68687;52.030;7.110;2024-01-07T14:41:45;7.95;;;6.05;;
41653;SDS011;68687;52.030;7.110;2024-01-07T14:44:11;7.10;;;4.40;;
41653;SDS011;68687;52.030;7.110;2024-01-07T14:46:37;5.35;;;4.00;;
41653;SDS011;68687;52.030;7.110;2024-01-07T14:49:03;6.85;;;4.55;;
41653;SDS011;68687;52.030;7.110;2024-01-07T14:51:29;5.43;;;3.72;;
41653;SDS011;68687;52.030;7.110;2024-01-07T14:53:59;7.00;;;4.25;;
41653;SDS011;68687;52.030;7.110;2024-01-07T14:56:24;6.53;;;4.28;;
41653;SDS011;68687;52.030;7.110;2024-01-07T14:58:50;7.57;;;4.35;;
41653;SDS011;68687;52.030;7.110;2024-01-07T15:01:15;5.72;;;3.88;;
41653;SDS011;68687;52.030;7.110;2024-01-07T15:03:41;7.00;;;4.45;;
41653;SDS011;68687;52.030;7.110;2024-01-07T15:06:06;6.65;;;3.90;;
41653;SDS011;68687;52.030;7.110;2024-01-07T15:08:34;7.70;;;4.38;;
41653;SDS011;68687;52.030;7.110;2024-01-07T15:10:59;8.85;;;4.55;;
41653;SDS011;68687;52.030;7.110;2024-01-07T15:13:24;5.90;;;4.40;;
41653;SDS011;68687;52.030;7.110;2024-01-07T15:15:51;7.45;;;4.22;;
41653;SDS011;68687;52.030;7.110;2024-01-07T15:18:17;6.45;;;4.65;;
41653;SDS011;68687;52.030;7.110;2024-01-07T15:20:43;7.75;;;4.57;;
41653;SDS011;68687;52.030;7.110;2024-01-07T15:23:08;10.98;;;7.50;;
41653;SDS011;68687;52.030;7.110;2024-01-07T15:25:33;6.38;;;4.70;;
41653;SDS011;68687;52.030;7.110;2024-01-07T15:27:58;10.30;;;5.85;;